ADDS TAF Data INFO
IDs: Format: Raw Decoded Include METARs

Data at: 0734 UTC 18 Oct 2017

METAR for:KHSV (Huntsville Intl, AL, US)
Text:KHSV 180653Z AUTO 11003KT 10SM CLR 09/09 A3026 RMK AO2 SLP245 T00890089 $
Temperature: 8.9°C ( 48°F)
Dewpoint: 8.9°C ( 48°F) [RH = 100%]
Pressure (altimeter):30.26 inches Hg (1024.8 mb) [Sea level pressure: 1024.5 mb]
Winds:from the ESE (110 degrees) at 3 MPH (3 knots; 1.5 m/s)
Visibility:10 or more sm (16+ km)
Ceiling:at least 12,000 feet AGL
Clouds:sky clear below 12,000 feet AGL
QC Flag:automated observation with no human augmentation; SOME DATA ABOVE MAY BE INACCURATE!!!"$" is an indication the sensor requires maintenance.

TAF for:KHSV (Huntsville Intl, AL, US) issued at 0526 UTC 18 Oct 2017
Text:KHSV 180526Z 1806/1906 VRB04KT P6SM SCT250
Forecast period:0600 to 1500 UTC 18 October 2017
Forecast type:FROM: standard forecast or significant change
Winds:variable direction winds at 5 MPH (4 knots; 2.1 m/s)
Visibility:6 or more sm (10+ km)
Ceiling:at least 12,000 feet AGL
Clouds: scattered clouds at 25000 feet AGL
Text:FM181500 14007KT P6SM SCT250
Forecast period:1500 UTC 18 October 2017 to 0600 UTC 19 October 2017
Forecast type:FROM: standard forecast or significant change
Winds:from the SE (140 degrees) at 8 MPH (7 knots; 3.6 m/s)
Visibility:6 or more sm (10+ km)
Ceiling:at least 12,000 feet AGL
Clouds: scattered clouds at 25000 feet AGL